Royal Leamington Spa, United Kingdom
Current Conditions -  °F | °C
As of 4:50 PM on Friday 31 Oct 2014 (Local Time) from EGBE Reporting Station
Clear Clear  
Wind Chill: 66°   Ceiling: Unl
Heat Index: 66°   Visibility: 6mi
Dew Point: 57°   Wind: 6mph
Humidity: 73%   Direction: 180°S
Pressure: 29.91"   Gusts: NA
Location:  52.29°N, 1.54°W
Report Text: EGBE 311650Z 18005KT CAVOK 19/14 Q1013
Loading
Personal Weather Stations






























Interactive Weather Map
Tropical Storm Tracking
New forecast layout! Learn more

10-Day Weather Forecast

Advertisements
Track Severe Weather on mobile